Station info - map view · info · telemetry · weather · raw · status · beacons · messages · bulletins · browse · moving · my account
Callsign, ship name or locator: Clear       
It is possible to search using wildcards (*?) after a prefix. Example: OH*
APRS station WK1Y-1 - show graphs
Map loading...
Comment: "
Mic-E message: En route
Location: 43°08.81' N 71°26.07' W - locator FN43GD75UF - show map - static map
1.2 miles East bearing 90° from Pembroke, Merrimack County, New Hampshire, United States [?]
1.5 miles Northeast bearing 40° from Suncook, Merrimack County, New Hampshire, United States
57.7 miles North bearing 341° from Boston, Suffolk County, Massachusetts, United States
59.5 miles North bearing 341° from South Boston, Suffolk County, Massachusetts, United States
Last position: 2018-05-01 17:43:29 EDT (21d 13h32m ago)
2018-05-01 17:43:29 EDT local time at Pembroke, United States [?]
Altitude: 358 ft
Course: 90°
Device: Kenwood: TM-D700 (rig)
Last path: WK1Y-1>TS0X8Q via WIDE1-1,WIDE2-1,qAO,K1NRO (good)
Positions stored: 18139
Stations near current position of WK1Y-1 - show more
callsign distance last heard - EDT      callsign distance last heard - EDT
W1ROU C2.4 miles 147°2018-05-23 07:01:27 W1ROU-C2.4 miles 147°2018-05-23 07:01:37
EW03453.9 miles 206°2018-05-23 07:13:19 DW58334.5 miles 13°2018-05-23 07:06:56
KW1M4.9 miles 356°2018-05-23 07:05:03 NE1DS C5.0 miles 357°2018-05-23 06:58:54
NE1DS-C5.0 miles 357°2018-05-23 06:59:04 NE1DS B5.0 miles 357°2018-05-22 22:30:03
NE1DS-B5.0 miles 357°2018-05-22 22:30:13 W1JY C5.0 miles 357°2018-05-23 07:10:17
W1JY-C5.0 miles 357°2018-05-23 07:10:26 K1NRO5.0 miles 357°2018-05-23 07:06:50
KQNRO5.0 miles 357°2018-05-20 00:57:50 KB1QV-106.1 miles 227°2018-05-16 14:26:29
KB1URR-56.8 miles 13°2018-05-16 23:33:05 KC1ILH B7.7 miles 205°2018-05-23 07:08:20
KC1ILH-B7.7 miles 205°2018-05-23 07:08:30 KC1ILH-77.7 miles 205°2018-05-22 22:46:32
K1CF7.8 miles 316°2018-05-05 22:33:06 KB1ZYU-108.0 miles 248°2018-05-02 03:41:17
Stations which heard WK1Y-1 directly on radio –
callsign pkts first heard - EDT last heard longest (tx => rx) longest at - EDT
KB1AEV-15 43 2018-05-01 14:14:59 2018-05-01 15:42:23 FN32QM > FN31ST 49.0 miles 170° 2018-05-01 15:42:23
KX1EOC-15 16 2018-05-01 12:53:42 2018-05-01 13:42:39 FN31AM > FN31GI 28.3 miles 113° 2018-05-01 12:53:42
N1NCI-3 23 2018-05-01 15:25:46 2018-05-01 16:56:03 FN32QH > FN33TA 51.8 miles 14° 2018-05-01 15:25:46
W2VER-15 28 2018-05-01 11:55:40 2018-05-01 12:45:21 FN21WM > FN21RE 32.4 miles 222° 2018-05-01 12:45:21
N3NXC-2 14 2018-05-01 08:59:57 2018-05-01 09:43:29 FN11VA > FN11ME 40.8 miles 289° 2018-05-01 09:43:29
KB1AEV-4 6 2018-05-01 14:58:44 2018-05-01 15:05:11 FN31QW > FN32RA 4.1 miles 19° 2018-05-01 14:58:44
AB2ZO-2 1 2018-05-01 12:51:38 2018-05-01 12:51:38 FN31AM > FN31AR 14.8 miles 14° 2018-05-01 12:51:38
WB2ZII-15 5 2018-05-01 11:53:37 2018-05-01 13:18:32 FN21QI > FN31CG 42.9 miles 99° 2018-05-01 11:53:37
UNCAN 8 2018-05-01 16:48:49 2018-05-01 17:43:29 FN33XB > FN42EX 25.2 miles 100° 2018-05-01 16:48:49
W1UWS-1 4 2018-05-01 16:11:21 2018-05-01 16:28:09 FN32RV > FN33SK 38.9 miles 7° 2018-05-01 16:11:21
KB3EJM-11 11 2018-05-01 10:31:43 2018-05-01 10:51:18 FN21HF > FN21HB 12.0 miles 171° 2018-05-01 10:51:18
N2KI-3 25 2018-05-01 11:38:56 2018-05-01 12:38:09 FN21VM > FN21RK 18.4 miles 257° 2018-05-01 12:38:09
WB2ZII-13 1 2018-05-01 13:16:30 2018-05-01 13:16:30 FN31EK > FN31FH 10.1 miles 155° 2018-05-01 13:16:30
KB1VLZ-1 5 2018-05-01 14:17:08 2018-05-01 14:31:34 FN31OQ > FN31NO 7.2 miles 215° 2018-05-01 14:31:34
W2LV-3 3 2018-05-01 11:31:44 2018-05-01 13:00:53 FN31BM > FN21OE 50.7 miles 243° 2018-05-01 13:00:53
N3LLO-2 21 2018-05-01 16:43:41 2018-05-01 17:41:26 FN33WA > FN43BI 28.6 miles 31° 2018-05-01 16:43:41
K1FFK 1 2018-05-01 16:22:49 2018-05-01 16:22:49 FN32TW > FN32JP 45.0 miles 244° 2018-05-01 16:22:49
N3TJJ-13 3 2018-05-01 08:40:21 2018-05-01 08:48:42 FN11HB > FN11KO 40.6 miles 19° 2018-05-01 08:40:21
K2ATY-10 12 2018-05-01 12:44:20 2018-05-01 13:09:15 FN31DN > FN21XN 18.7 miles 272° 2018-05-01 13:09:15
KC2FQN-15 3 2018-05-01 10:52:26 2018-05-01 11:24:27 FN21HF > FN21MO 36.1 miles 41° 2018-05-01 10:52:26
KC3FIT-1 3 2018-05-01 09:22:44 2018-05-01 09:37:17 FN11TA > FN10PV 21.4 miles 243° 2018-05-01 09:37:17
K3SNY-1 11 2018-05-01 09:07:13 2018-05-01 09:40:22 FN11UA > FN10KR 47.8 miles 246° 2018-05-01 09:40:22
WASHCT 11 2018-05-01 13:23:46 2018-05-01 14:15:00 FN31MM > FN31HP 20.7 miles 289° 2018-05-01 14:15:00
K1NRO 8 2018-05-01 16:48:48 2018-05-01 17:43:29 FN33XB > FN43GF 34.2 miles 70° 2018-05-01 16:48:48
KC2OUR-4 5 2018-05-01 11:58:49 2018-05-01 12:43:17 FN21WM > FN21TJ 14.0 miles 239° 2018-05-01 12:43:17
N3LLO-5 3 2018-05-01 16:56:00 2018-05-01 17:36:15 FN33XB > FN44DD 76.8 miles 13° 2018-05-01 16:56:00

Only position packets which were originated by the station are shown here. The range statistics show some extra long hops, because some digipeaters do not correctly add themselves to the digipeater path. Please check the raw packets.
About this site
This page shows real-time information collected from the Automatic Position Reporting System Internet network (APRS-IS). APRS is used by amateur (ham) radio operators to transmit real-time position information, weather data, telemetry and messages over the radio. A vehicle equipped with a GPS receiver, a VHF transmitter or HF transceiver and a small computer device called a tracker transmits it's location, speed and course in a small data packet, which is then received by a nearby iGate receiving site which forwards the packet on the Internet. Systems connected to the Internet can send information on the APRS-IS without a radio transmitter, or collect and display information transmitted anywhere in the world.
FAQ · Blog · Discussion group · Linking to aprs.fi · AIS sites · Service status · Database statistics · Advertising on aprs.fi · Technical details · API · Change log · Planned changes · Credits and thanks · Terms Of Service · iPhone/iPad APRS